createdAt,value
2018-04-29T00:03:02.921Z,13.30
2018-04-29T00:06:06.559Z,13.35
2018-04-29T00:09:09.882Z,13.34
2018-04-29T00:12:13.201Z,13.31
2018-04-29T00:15:16.600Z,13.31
2018-04-29T00:18:19.889Z,13.32
2018-04-29T00:21:23.304Z,13.31
2018-04-29T00:24:26.519Z,13.25
2018-04-29T00:27:30.554Z,13.15
2018-04-29T00:30:33.923Z,13.09
2018-04-29T00:33:37.252Z,13.11
2018-04-29T00:36:40.548Z,13.07
2018-04-29T00:39:43.912Z,13.15
2018-04-29T00:42:47.195Z,13.04
2018-04-29T00:45:52.476Z,12.85
2018-04-29T00:48:55.855Z,12.77
2018-04-29T00:52:08.178Z,12.76
2018-04-29T00:55:11.545Z,12.91
2018-04-29T00:58:14.856Z,12.94
2018-04-29T01:01:18.621Z,12.98
2018-04-29T01:04:21.879Z,12.85
2018-04-29T01:07:25.268Z,12.67
2018-04-29T01:10:28.560Z,12.63
2018-04-29T01:13:32.277Z,12.61
2018-04-29T01:16:35.493Z,12.64
2018-04-29T01:19:38.833Z,12.52
2018-04-29T01:22:42.182Z,12.62
2018-04-29T01:25:45.551Z,12.70
2018-04-29T01:28:48.870Z,12.63
2018-04-29T01:31:52.258Z,12.49
2018-04-29T01:34:55.560Z,12.45
2018-04-29T01:37:59.948Z,12.47
2018-04-29T01:41:03.301Z,12.34
2018-04-29T01:44:06.684Z,12.27
2018-04-29T01:47:10.112Z,12.26
2018-04-29T01:50:13.300Z,12.20
2018-04-29T01:53:16.701Z,12.14
2018-04-29T01:56:20.091Z,12.07
2018-04-29T01:59:23.388Z,12.05
2018-04-29T02:02:26.773Z,12.16
2018-04-29T02:05:30.512Z,12.09
2018-04-29T02:08:33.873Z,12.04
2018-04-29T02:11:37.199Z,12.08
2018-04-29T02:14:40.575Z,12.12
2018-04-29T02:17:43.907Z,12.17
2018-04-29T02:20:47.273Z,12.12
2018-04-29T02:23:50.606Z,12.19
2018-04-29T02:26:54.022Z,12.13
2018-04-29T02:29:57.388Z,12.13
2018-04-29T02:33:01.609Z,12.18
2018-04-29T02:36:04.889Z,12.23
2018-04-29T02:39:08.184Z,12.31
2018-04-29T02:42:11.491Z,12.35
2018-04-29T02:45:14.726Z,12.34
2018-04-29T02:48:18.114Z,12.35
2018-04-29T02:51:21.465Z,12.18
2018-04-29T02:54:24.784Z,12.20
2018-04-29T02:57:28.178Z,12.17
2018-04-29T03:00:32.565Z,12.14
2018-04-29T03:03:35.836Z,12.20
2018-04-29T03:06:39.004Z,12.25
2018-04-29T03:09:42.384Z,12.29
2018-04-29T03:12:45.772Z,12.33
2018-04-29T03:15:49.188Z,12.35
2018-04-29T03:18:52.481Z,12.36
2018-04-29T03:21:55.780Z,12.38
2018-04-29T03:24:59.664Z,12.14
2018-04-29T03:28:02.921Z,12.10
2018-04-29T03:31:06.296Z,12.07
2018-04-29T03:34:09.583Z,12.09
2018-04-29T03:37:13.010Z,12.11
2018-04-29T03:40:16.284Z,12.19
2018-04-29T03:43:19.581Z,12.19
2018-04-29T03:46:22.984Z,12.27
2018-04-29T03:49:26.191Z,12.36
2018-04-29T03:52:30.467Z,12.37
2018-04-29T03:55:33.904Z,12.36
2018-04-29T03:59:48.689Z,12.29
2018-04-29T04:03:03.357Z,12.25
2018-04-29T04:06:06.764Z,12.12
2018-04-29T04:09:10.035Z,12.04
2018-04-29T04:12:13.286Z,11.92
2018-04-29T04:15:16.597Z,11.76
2018-04-29T04:18:19.952Z,11.73
2018-04-29T04:21:23.218Z,11.73
2018-04-29T04:24:26.545Z,11.74
2018-04-29T04:27:30.608Z,11.70
2018-04-29T04:30:33.933Z,11.62
2018-04-29T04:33:37.185Z,11.67
2018-04-29T04:36:40.529Z,11.72
2018-04-29T04:39:43.853Z,11.80
2018-04-29T04:42:49.176Z,11.86
2018-04-29T04:45:52.415Z,11.91
2018-04-29T04:48:55.670Z,11.94
2018-04-29T04:51:59.753Z,12.01
2018-04-29T04:55:03.077Z,12.07
2018-04-29T04:58:07.466Z,12.04
2018-04-29T05:01:10.705Z,12.05
2018-04-29T05:04:14.097Z,11.98
2018-04-29T05:07:17.408Z,11.97
2018-04-29T05:10:20.689Z,12.04
2018-04-29T05:13:23.991Z,11.86
2018-04-29T05:16:32.720Z,11.83
2018-04-29T05:19:37.057Z,11.81
2018-04-29T05:22:40.380Z,11.97
2018-04-29T05:25:43.765Z,12.11
2018-04-29T05:28:47.148Z,12.23
2018-04-29T05:31:50.537Z,12.20
2018-04-29T05:34:53.832Z,12.18
2018-04-29T05:37:57.231Z,12.17
2018-04-29T05:41:01.425Z,12.11
2018-04-29T05:44:04.753Z,12.03
2018-04-29T05:47:08.045Z,11.94
2018-04-29T05:50:11.276Z,11.90
2018-04-29T05:53:14.623Z,11.85
2018-04-29T05:56:17.936Z,11.92
2018-04-29T05:59:21.360Z,11.87
2018-04-29T06:02:24.646Z,11.85
2018-04-29T06:05:28.036Z,11.82
2018-04-29T06:08:32.381Z,11.77
2018-04-29T06:11:39.941Z,11.83
2018-04-29T06:14:43.255Z,11.91
2018-04-29T06:17:46.546Z,11.94
2018-04-29T06:20:49.871Z,12.02
2018-04-29T06:23:53.092Z,12.15
2018-04-29T06:26:56.439Z,12.22
2018-04-29T06:30:00.850Z,12.35
2018-04-29T06:33:04.290Z,12.38
2018-04-29T06:36:07.699Z,12.53
2018-04-29T06:39:10.960Z,12.71
2018-04-29T06:42:14.265Z,12.83
2018-04-29T06:45:17.658Z,12.92
2018-04-29T06:48:20.903Z,12.99
2018-04-29T06:51:24.040Z,13.19
2018-04-29T06:54:27.673Z,13.38
2018-04-29T06:57:31.885Z,13.44
2018-04-29T07:00:35.302Z,13.62
2018-04-29T07:03:38.418Z,13.80
2018-04-29T07:06:42.045Z,14.03
2018-04-29T07:09:45.372Z,14.30
2018-04-29T07:12:48.779Z,14.55
2018-04-29T07:15:52.087Z,14.79
2018-04-29T07:18:55.490Z,14.99
2018-04-29T07:21:59.863Z,15.21
2018-04-29T07:25:03.171Z,15.40
2018-04-29T07:28:06.487Z,15.61
2018-04-29T07:31:09.873Z,15.79
2018-04-29T07:34:13.180Z,15.77
2018-04-29T07:37:16.480Z,15.90
2018-04-29T07:40:19.978Z,15.98
2018-04-29T07:43:23.539Z,16.12
2018-04-29T07:46:26.938Z,16.17
2018-04-29T07:49:30.715Z,16.14
2018-04-29T07:52:34.141Z,16.02
2018-04-29T07:55:37.419Z,16.01
2018-04-29T07:58:40.821Z,16.08
2018-04-29T08:01:44.343Z,16.25
2018-04-29T08:04:47.760Z,16.32
2018-04-29T08:07:51.095Z,16.32
2018-04-29T08:10:54.828Z,16.51
2018-04-29T08:13:58.604Z,16.63
2018-04-29T08:17:01.777Z,16.73
2018-04-29T08:20:05.005Z,17.01
2018-04-29T08:23:08.293Z,17.05
2018-04-29T08:26:12.649Z,17.08
2018-04-29T08:29:17.128Z,17.17
2018-04-29T08:32:21.247Z,17.26
2018-04-29T08:35:24.737Z,17.22
2018-04-29T08:38:28.060Z,17.37
2018-04-29T08:41:31.533Z,17.65
2018-04-29T08:44:34.853Z,17.88
2018-04-29T08:47:38.919Z,17.98
2018-04-29T08:50:43.195Z,17.91
2018-04-29T08:53:46.567Z,18.02
2018-04-29T08:56:49.737Z,18.20
2018-04-29T08:59:52.953Z,18.27
2018-04-29T09:02:56.256Z,18.43
2018-04-29T09:05:59.491Z,18.42
2018-04-29T09:09:03.952Z,18.41
2018-04-29T09:12:07.305Z,18.56
2018-04-29T09:15:11.273Z,18.72
2018-04-29T09:18:14.607Z,18.73
2018-04-29T09:21:18.023Z,18.79
2018-04-29T09:24:21.225Z,19.07
2018-04-29T09:27:24.564Z,19.27
2018-04-29T09:30:27.934Z,19.49
2018-04-29T09:33:31.306Z,19.66
2018-04-29T09:36:34.688Z,19.71
2018-04-29T09:39:38.008Z,19.70
2018-04-29T09:42:42.666Z,19.93
2018-04-29T09:45:45.896Z,19.99
2018-04-29T09:48:49.260Z,19.96
2018-04-29T09:51:52.656Z,19.88
2018-04-29T09:54:56.106Z,20.07
2018-04-29T09:57:59.463Z,20.14
2018-04-29T10:01:06.992Z,20.39
2018-04-29T10:04:10.889Z,20.51
2018-04-29T10:07:14.255Z,20.44
2018-04-29T10:10:17.715Z,20.55
2018-04-29T10:13:20.960Z,20.86
2018-04-29T10:16:24.216Z,20.98
2018-04-29T10:19:27.629Z,21.04
2018-04-29T10:22:30.849Z,21.09
2018-04-29T10:25:34.137Z,21.27
2018-04-29T10:28:37.521Z,21.55
2018-04-29T10:31:41.657Z,21.74
2018-04-29T10:34:45.028Z,21.88
2018-04-29T10:37:48.691Z,21.85
2018-04-29T10:40:52.096Z,21.82
2018-04-29T10:43:55.436Z,21.87
2018-04-29T10:46:59.009Z,21.92
2018-04-29T10:50:03.349Z,22.01
2018-04-29T10:53:06.604Z,22.17
2018-04-29T10:56:10.569Z,22.33
2018-04-29T10:59:14.132Z,22.53
2018-04-29T11:02:17.428Z,22.60
2018-04-29T11:05:20.730Z,22.77
2018-04-29T11:08:24.091Z,22.85
2018-04-29T11:11:27.263Z,22.88
2018-04-29T11:14:30.493Z,22.99
2018-04-29T11:17:33.761Z,23.16
2018-04-29T11:20:37.039Z,23.30
2018-04-29T11:23:40.366Z,23.40
2018-04-29T11:26:44.327Z,23.45
2018-04-29T11:29:48.717Z,23.49
2018-04-29T11:32:52.067Z,23.54
2018-04-29T11:35:55.486Z,23.78
2018-04-29T11:38:59.685Z,23.94
2018-04-29T11:42:03.206Z,23.95
2018-04-29T11:45:06.536Z,24.02
2018-04-29T11:48:10.872Z,24.07
2018-04-29T11:51:14.899Z,24.20
2018-04-29T11:54:18.795Z,24.24
2018-04-29T11:57:22.200Z,24.35
2018-04-29T12:00:26.612Z,24.39
2018-04-29T12:03:30.016Z,24.51
2018-04-29T12:06:33.317Z,24.58
2018-04-29T12:09:36.737Z,24.55
2018-04-29T12:12:40.115Z,24.67
2018-04-29T12:15:44.499Z,24.69
2018-04-29T12:18:47.909Z,24.86
2018-04-29T12:21:51.232Z,24.94
2018-04-29T12:24:54.569Z,25.20
2018-04-29T12:27:59.340Z,25.41
2018-04-29T12:31:02.660Z,25.50
2018-04-29T12:34:06.053Z,25.66
2018-04-29T12:37:09.242Z,25.83
2018-04-29T12:40:13.459Z,25.80
2018-04-29T12:43:16.889Z,25.89
2018-04-29T12:46:20.279Z,25.73
2018-04-29T12:49:23.552Z,25.84
2018-04-29T12:52:27.757Z,25.91
2018-04-29T12:55:31.079Z,26.05
2018-04-29T12:58:34.303Z,26.07
2018-04-29T13:01:37.599Z,26.13
2018-04-29T13:04:40.979Z,26.20
2018-04-29T13:07:44.187Z,26.32
2018-04-29T13:10:48.596Z,26.18
2018-04-29T13:13:51.983Z,26.34
2018-04-29T13:16:56.190Z,26.35
2018-04-29T13:19:59.560Z,26.35
2018-04-29T13:23:02.914Z,26.48
2018-04-29T13:26:06.258Z,26.66
2018-04-29T13:29:09.768Z,26.90
2018-04-29T13:32:13.120Z,26.89
2018-04-29T13:35:16.445Z,26.98
2018-04-29T13:38:19.804Z,27.14
2018-04-29T13:41:23.104Z,27.16
2018-04-29T13:44:26.523Z,27.06
2018-04-29T13:47:29.896Z,27.01
2018-04-29T13:50:33.103Z,26.90
2018-04-29T13:53:36.359Z,26.87
2018-04-29T13:56:39.705Z,26.90
2018-04-29T13:59:42.963Z,27.09
2018-04-29T14:02:46.296Z,27.28
2018-04-29T14:05:49.683Z,27.41
2018-04-29T14:08:52.959Z,27.46
2018-04-29T14:11:57.565Z,27.42
2018-04-29T14:15:00.960Z,27.32
2018-04-29T14:18:05.340Z,27.37
2018-04-29T14:21:08.742Z,27.45
2018-04-29T14:24:12.083Z,27.43
2018-04-29T14:27:15.255Z,27.56
2018-04-29T14:30:18.523Z,27.67
2018-04-29T14:33:21.940Z,27.71
2018-04-29T14:36:25.990Z,27.67
2018-04-29T14:39:29.344Z,27.50
2018-04-29T14:42:33.640Z,27.21
2018-04-29T14:45:36.993Z,27.12
2018-04-29T14:48:40.279Z,27.03
2018-04-29T14:51:43.675Z,26.99
2018-04-29T14:54:46.945Z,26.94
2018-04-29T14:57:51.410Z,27.05
2018-04-29T15:00:55.622Z,27.17
2018-04-29T15:03:58.825Z,27.17
2018-04-29T15:07:02.090Z,27.37
2018-04-29T15:10:05.421Z,27.56
2018-04-29T15:13:08.804Z,27.62
2018-04-29T15:16:12.095Z,27.61
2018-04-29T15:19:15.373Z,27.51
2018-04-29T15:22:19.865Z,27.59
2018-04-29T15:25:24.711Z,27.70
2018-04-29T15:28:27.988Z,27.66
2018-04-29T15:31:31.366Z,27.50
2018-04-29T15:34:34.724Z,27.41
2018-04-29T15:37:38.042Z,27.35
2018-04-29T15:40:41.456Z,27.39
2018-04-29T15:43:44.832Z,27.30
2018-04-29T15:46:50.174Z,27.23
2018-04-29T15:49:53.392Z,27.32
2018-04-29T15:52:57.711Z,27.33
2018-04-29T15:56:01.088Z,27.48
2018-04-29T15:59:04.466Z,27.71
2018-04-29T16:02:07.603Z,27.62
2018-04-29T16:05:10.997Z,27.38
2018-04-29T16:08:14.361Z,27.32
2018-04-29T16:11:17.708Z,27.26
2018-04-29T16:14:20.944Z,27.31
2018-04-29T16:17:24.257Z,27.31
2018-04-29T16:20:28.376Z,27.42
2018-04-29T16:23:31.790Z,27.51
2018-04-29T16:26:35.087Z,27.41
2018-04-29T16:29:38.355Z,27.33
2018-04-29T16:32:41.701Z,27.23
2018-04-29T16:35:44.993Z,27.19
2018-04-29T16:38:48.380Z,27.15
2018-04-29T16:41:51.652Z,27.04
2018-04-29T16:44:55.525Z,26.93
2018-04-29T16:47:58.816Z,26.79
2018-04-29T16:51:02.182Z,26.78
2018-04-29T16:54:05.555Z,26.73
2018-04-29T16:57:08.912Z,26.62
2018-04-29T17:00:13.283Z,26.52
2018-04-29T17:03:16.632Z,26.40
2018-04-29T17:06:19.927Z,26.37
2018-04-29T17:09:23.268Z,26.31
2018-04-29T17:12:27.470Z,26.27
2018-04-29T17:15:30.801Z,26.18
2018-04-29T17:18:35.161Z,26.11
2018-04-29T17:21:38.457Z,26.07
2018-04-29T17:24:42.525Z,26.04
2018-04-29T17:27:45.861Z,26.02
2018-04-29T17:30:49.231Z,25.91
2018-04-29T17:33:52.600Z,25.82
2018-04-29T17:36:55.985Z,25.73
2018-04-29T17:39:59.307Z,25.67
2018-04-29T17:43:02.620Z,25.61
2018-04-29T17:46:05.890Z,25.52
2018-04-29T17:49:09.227Z,25.40
2018-04-29T17:52:13.756Z,25.29
2018-04-29T17:55:19.100Z,25.22
2018-04-29T17:58:23.655Z,25.16
2018-04-29T18:01:28.185Z,25.05
2018-04-29T18:04:31.472Z,25.03
2018-04-29T18:07:34.667Z,24.97
2018-04-29T18:10:38.055Z,24.87
2018-04-29T18:13:43.336Z,24.81
2018-04-29T18:16:46.621Z,24.70
2018-04-29T18:19:49.940Z,24.60
2018-04-29T18:22:53.226Z,24.55
2018-04-29T18:25:56.600Z,24.50
2018-04-29T18:29:00.040Z,24.45
2018-04-29T18:32:03.387Z,24.37
2018-04-29T18:35:06.597Z,24.34
2018-04-29T18:38:09.990Z,24.32
2018-04-29T18:41:13.892Z,24.27
2018-04-29T18:44:17.280Z,24.22
2018-04-29T18:47:20.491Z,24.13
2018-04-29T18:50:23.848Z,24.05
2018-04-29T18:53:27.071Z,24.03
2018-04-29T18:56:30.442Z,24.00
2018-04-29T18:59:33.796Z,23.98
2018-04-29T19:02:37.191Z,23.96
2018-04-29T19:05:44.077Z,23.84
2018-04-29T19:08:47.774Z,23.77
2018-04-29T19:11:51.075Z,23.71
2018-04-29T19:14:54.751Z,23.66
2018-04-29T19:17:58.050Z,23.60
2018-04-29T19:21:01.302Z,23.52
2018-04-29T19:24:05.700Z,23.48
2018-04-29T19:27:08.751Z,23.42
2018-04-29T19:30:13.334Z,23.38
2018-04-29T19:33:16.634Z,23.31
2018-04-29T19:36:20.021Z,23.26
2018-04-29T19:39:23.316Z,23.20
2018-04-29T19:42:26.708Z,23.14
2018-04-29T19:45:30.045Z,23.12
2018-04-29T19:48:33.344Z,23.01
2018-04-29T19:51:38.644Z,22.99
2018-04-29T19:54:41.935Z,22.92
2018-04-29T19:57:45.248Z,22.90
2018-04-29T20:00:48.570Z,22.88
2018-04-29T20:03:51.749Z,22.86
2018-04-29T20:06:54.977Z,22.79
2018-04-29T20:09:58.234Z,22.74
2018-04-29T20:13:02.675Z,22.72
2018-04-29T20:16:06.005Z,22.78
2018-04-29T20:19:09.356Z,22.74
2018-04-29T20:22:12.734Z,22.73
2018-04-29T20:25:16.059Z,22.68
2018-04-29T20:28:20.485Z,22.60
2018-04-29T20:31:23.699Z,22.57
2018-04-29T20:34:26.970Z,22.53
2018-04-29T20:37:31.069Z,22.50
2018-04-29T20:40:34.209Z,22.44
2018-04-29T20:43:37.599Z,22.46
2018-04-29T20:46:41.017Z,22.39
2018-04-29T20:49:44.649Z,22.35
2018-04-29T20:52:48.462Z,22.30
2018-04-29T20:55:51.839Z,22.21
2018-04-29T20:58:55.699Z,22.09
2018-04-29T21:01:58.896Z,22.04
2018-04-29T21:05:02.609Z,22.00
2018-04-29T21:08:05.911Z,21.97
2018-04-29T21:11:09.691Z,21.99
2018-04-29T21:14:13.258Z,21.96
2018-04-29T21:17:16.571Z,21.95
2018-04-29T21:20:19.905Z,21.87
2018-04-29T21:23:23.192Z,21.86
2018-04-29T21:26:27.565Z,21.83
2018-04-29T21:29:31.728Z,21.82
2018-04-29T21:32:35.023Z,21.80
2018-04-29T21:35:38.357Z,21.76
2018-04-29T21:38:41.775Z,21.75
2018-04-29T21:41:45.124Z,21.73
2018-04-29T21:44:48.436Z,21.75
2018-04-29T21:47:51.739Z,21.71
2018-04-29T21:50:55.040Z,21.68
2018-04-29T21:53:58.416Z,21.66
2018-04-29T21:57:02.632Z,21.56
2018-04-29T22:00:05.949Z,21.46
2018-04-29T22:03:09.345Z,21.38
2018-04-29T22:06:12.662Z,21.36
2018-04-29T22:09:16.708Z,21.36
2018-04-29T22:12:19.980Z,21.28
2018-04-29T22:15:23.785Z,21.25
2018-04-29T22:18:27.049Z,21.21
2018-04-29T22:21:31.250Z,21.21
2018-04-29T22:24:34.409Z,21.19
2018-04-29T22:27:38.473Z,21.19
2018-04-29T22:30:41.719Z,21.12
2018-04-29T22:33:45.072Z,21.07
2018-04-29T22:36:48.309Z,21.03
2018-04-29T22:39:51.569Z,20.92
2018-04-29T22:42:54.977Z,20.84
2018-04-29T22:45:58.477Z,20.85
2018-04-29T22:49:02.872Z,20.87
2018-04-29T22:52:06.151Z,20.89
2018-04-29T22:55:09.495Z,20.78
2018-04-29T22:58:12.758Z,20.61
2018-04-29T23:01:16.148Z,20.17
2018-04-29T23:04:19.492Z,19.85
2018-04-29T23:07:22.867Z,19.59
2018-04-29T23:10:26.294Z,19.42
2018-04-29T23:13:29.594Z,19.25
2018-04-29T23:16:32.978Z,19.02
2018-04-29T23:19:36.172Z,18.98
2018-04-29T23:22:39.469Z,18.85
2018-04-29T23:25:42.879Z,18.77
2018-04-29T23:28:46.250Z,18.66
2018-04-29T23:31:49.512Z,18.51
2018-04-29T23:34:52.864Z,18.43
2018-04-29T23:37:56.172Z,18.31
2018-04-29T23:40:59.419Z,18.26
2018-04-29T23:44:03.794Z,18.19
2018-04-29T23:47:07.239Z,18.10
2018-04-29T23:50:10.627Z,18.03
2018-04-29T23:53:15.016Z,17.93
2018-04-29T23:56:18.236Z,17.83
2018-04-29T23:59:21.481Z,17.87
